createdAt,value
2022-09-15T00:01:22.351Z,14.70
2022-09-15T00:02:54.576Z,14.70
2022-09-15T00:04:27.630Z,14.70
2022-09-15T00:05:59.798Z,14.70
2022-09-15T00:07:33.203Z,14.70
2022-09-15T00:09:06.539Z,14.70
2022-09-15T00:10:39.929Z,14.70
2022-09-15T00:12:11.974Z,14.70
2022-09-15T00:13:47.080Z,14.70
2022-09-15T00:15:20.401Z,14.70
2022-09-15T00:16:52.499Z,14.70
2022-09-15T00:18:25.891Z,14.70
2022-09-15T00:19:59.421Z,14.70
2022-09-15T00:21:34.752Z,14.70
2022-09-15T00:23:06.819Z,14.70
2022-09-15T00:24:40.254Z,14.70
2022-09-15T00:26:16.249Z,14.70
2022-09-15T00:27:49.560Z,14.70
2022-09-15T00:29:23.951Z,14.70
2022-09-15T00:30:56.455Z,14.70
2022-09-15T00:32:30.481Z,14.70
2022-09-15T00:34:04.180Z,14.70
2022-09-15T00:35:39.902Z,14.60
2022-09-15T00:37:13.040Z,14.60
2022-09-15T00:38:45.599Z,14.70
2022-09-15T00:40:18.773Z,14.70
2022-09-15T00:41:52.051Z,14.60
2022-09-15T00:43:51.950Z,14.60
2022-09-15T00:45:27.264Z,14.60
2022-09-15T00:47:18.157Z,14.60
2022-09-15T00:49:00.788Z,14.60
2022-09-15T00:50:34.208Z,14.60
2022-09-15T00:52:09.600Z,14.60
2022-09-15T00:53:43.336Z,14.60
2022-09-15T00:55:20.610Z,14.60
2022-09-15T00:56:55.909Z,14.60
2022-09-15T00:58:36.549Z,14.60
2022-09-15T01:00:12.951Z,14.60
2022-09-15T01:01:51.002Z,14.60
2022-09-15T01:03:23.927Z,14.60
2022-09-15T01:04:59.026Z,14.60
2022-09-15T01:06:36.312Z,14.70
2022-09-15T01:08:12.193Z,14.70
2022-09-15T01:09:51.567Z,14.70
2022-09-15T01:11:24.798Z,14.70
2022-09-15T01:13:01.038Z,14.70
2022-09-15T01:14:34.322Z,14.70
2022-09-15T01:16:15.824Z,14.70
2022-09-15T01:18:06.703Z,14.60
2022-09-15T01:20:10.198Z,14.60
2022-09-15T01:21:48.434Z,14.70
2022-09-15T01:24:01.076Z,14.70
2022-09-15T01:25:51.923Z,14.70
2022-09-15T01:28:24.151Z,14.70
2022-09-15T01:30:17.156Z,14.70
2022-09-15T01:32:16.032Z,14.70
2022-09-15T01:33:53.924Z,14.60
2022-09-15T01:35:33.647Z,14.60
2022-09-15T01:37:12.328Z,14.60
2022-09-15T01:38:51.541Z,14.60
2022-09-15T01:40:26.912Z,14.60
2022-09-15T01:42:03.487Z,14.60
2022-09-15T01:43:40.681Z,14.50
2022-09-15T01:45:19.634Z,14.50
2022-09-15T01:46:58.258Z,14.50
2022-09-15T01:48:35.110Z,14.50
2022-09-15T01:50:12.200Z,14.50
2022-09-15T01:51:47.656Z,14.50
2022-09-15T01:53:22.244Z,14.50
2022-09-15T01:55:00.089Z,14.50
2022-09-15T01:56:33.251Z,14.50
2022-09-15T01:58:06.278Z,14.50
2022-09-15T01:59:39.340Z,14.50
2022-09-15T02:01:18.206Z,14.50
2022-09-15T02:02:57.541Z,14.50
2022-09-15T02:04:34.843Z,14.50
2022-09-15T02:06:14.588Z,14.40
2022-09-15T02:07:54.489Z,14.40
2022-09-15T02:09:33.818Z,14.40
2022-09-15T02:11:16.124Z,14.40
2022-09-15T02:12:55.731Z,14.50
2022-09-15T02:14:39.437Z,14.50
2022-09-15T02:16:19.937Z,14.50
2022-09-15T02:17:55.593Z,14.50
2022-09-15T02:19:34.189Z,14.40
2022-09-15T02:21:10.680Z,14.40
2022-09-15T02:22:47.720Z,14.40
2022-09-15T02:24:27.793Z,14.40
2022-09-15T02:26:05.029Z,14.50
2022-09-15T02:27:43.029Z,14.50
2022-09-15T02:29:19.460Z,14.40
2022-09-15T02:30:55.161Z,14.40
2022-09-15T02:32:31.734Z,14.40
2022-09-15T02:34:10.117Z,14.40
2022-09-15T02:35:44.001Z,14.40
2022-09-15T02:37:17.854Z,14.40
2022-09-15T02:38:54.211Z,14.50
2022-09-15T02:40:29.919Z,14.40
2022-09-15T02:42:03.488Z,14.40
2022-09-15T02:43:44.097Z,14.50
2022-09-15T02:45:17.293Z,14.50
2022-09-15T02:46:50.689Z,14.50
2022-09-15T02:48:25.299Z,14.40
2022-09-15T02:49:58.456Z,14.40
2022-09-15T02:51:31.055Z,14.40
2022-09-15T02:53:04.237Z,14.40
2022-09-15T02:54:36.298Z,14.40
2022-09-15T02:56:09.399Z,14.40
2022-09-15T02:57:42.618Z,14.40
2022-09-15T02:59:15.868Z,14.30
2022-09-15T03:00:47.981Z,14.30
2022-09-15T03:02:21.526Z,14.40
2022-09-15T03:03:55.973Z,14.30
2022-09-15T03:05:31.302Z,14.30
2022-09-15T03:07:03.464Z,14.40
2022-09-15T03:08:36.535Z,14.40
2022-09-15T03:10:11.597Z,14.40
2022-09-15T03:11:44.650Z,14.40
2022-09-15T03:13:18.397Z,14.40
2022-09-15T03:14:51.729Z,14.50
2022-09-15T03:16:25.948Z,14.40
2022-09-15T03:17:59.557Z,14.40
2022-09-15T03:19:33.952Z,14.40
2022-09-15T03:21:09.402Z,14.40
2022-09-15T03:22:42.482Z,14.40
2022-09-15T03:24:16.216Z,14.40
2022-09-15T03:25:48.293Z,14.40
2022-09-15T03:27:21.338Z,14.40
2022-09-15T03:28:54.426Z,14.40
2022-09-15T03:30:27.452Z,14.40
2022-09-15T03:32:00.530Z,14.40
2022-09-15T03:33:33.893Z,14.40
2022-09-15T03:35:09.527Z,14.40
2022-09-15T03:36:42.564Z,14.40
2022-09-15T03:38:15.838Z,14.40
2022-09-15T03:39:49.139Z,14.40
2022-09-15T03:41:22.258Z,14.40
2022-09-15T03:42:55.292Z,14.30
2022-09-15T03:44:28.834Z,14.40
2022-09-15T03:46:02.098Z,14.40
2022-09-15T03:47:35.260Z,14.40
2022-09-15T03:49:08.757Z,14.30
2022-09-15T03:50:43.238Z,14.30
2022-09-15T03:52:16.252Z,14.30
2022-09-15T03:53:49.445Z,14.30
2022-09-15T03:55:22.578Z,14.40
2022-09-15T03:56:55.835Z,14.30
2022-09-15T03:58:30.649Z,14.30
2022-09-15T04:00:06.222Z,14.40
2022-09-15T04:01:39.337Z,14.40
2022-09-15T04:03:12.146Z,14.40
2022-09-15T04:04:45.175Z,14.40
2022-09-15T04:06:20.911Z,14.40
2022-09-15T04:07:53.970Z,14.50
2022-09-15T04:09:27.142Z,14.50
2022-09-15T04:11:00.327Z,14.50
2022-09-15T04:12:33.619Z,14.50
2022-09-15T04:14:06.674Z,14.40
2022-09-15T04:15:40.905Z,14.40
2022-09-15T04:17:15.507Z,14.30
2022-09-15T04:18:47.619Z,14.30
2022-09-15T04:20:21.388Z,14.30
2022-09-15T04:21:55.832Z,14.30
2022-09-15T04:23:29.374Z,14.30
2022-09-15T04:25:01.509Z,14.30
2022-09-15T04:26:36.301Z,14.30
2022-09-15T04:28:09.550Z,14.30
2022-09-15T04:29:42.962Z,14.30
2022-09-15T04:31:16.421Z,14.40
2022-09-15T04:32:50.010Z,14.40
2022-09-15T04:34:24.091Z,14.40
2022-09-15T04:35:59.968Z,14.40
2022-09-15T04:37:34.610Z,14.40
2022-09-15T04:39:07.652Z,14.50
2022-09-15T04:40:39.735Z,14.40
2022-09-15T04:42:12.789Z,14.50
2022-09-15T04:43:45.934Z,14.50
2022-09-15T04:45:19.101Z,14.50
2022-09-15T04:46:52.489Z,14.50
2022-09-15T04:48:26.007Z,14.60
2022-09-15T04:49:59.119Z,14.60
2022-09-15T04:51:31.329Z,14.60
2022-09-15T04:53:05.924Z,14.60
2022-09-15T04:54:37.975Z,14.60
2022-09-15T04:56:14.287Z,14.60
2022-09-15T04:57:47.666Z,14.60
2022-09-15T04:59:21.020Z,14.60
2022-09-15T05:00:54.107Z,14.60
2022-09-15T05:02:27.867Z,14.70
2022-09-15T05:04:02.027Z,14.70
2022-09-15T05:05:35.182Z,14.70
2022-09-15T05:07:08.237Z,14.60
2022-09-15T05:08:42.043Z,14.70
2022-09-15T05:10:15.566Z,14.70
2022-09-15T05:11:48.641Z,14.70
2022-09-15T05:13:21.681Z,14.70
2022-09-15T05:14:54.786Z,14.70
2022-09-15T05:16:28.288Z,14.70
2022-09-15T05:18:01.579Z,14.70
2022-09-15T05:19:34.973Z,14.70
2022-09-15T05:21:09.971Z,14.70
2022-09-15T05:22:43.068Z,14.80
2022-09-15T05:24:17.484Z,14.80
2022-09-15T05:25:56.565Z,14.80
2022-09-15T05:27:32.687Z,14.70
2022-09-15T05:29:05.708Z,14.70
2022-09-15T05:30:44.216Z,14.80
2022-09-15T05:32:17.724Z,14.70
2022-09-15T05:33:52.687Z,14.70
2022-09-15T05:35:25.757Z,14.70
2022-09-15T05:36:59.053Z,14.80
2022-09-15T05:38:33.035Z,14.80
2022-09-15T05:40:08.840Z,14.80
2022-09-15T05:41:42.122Z,14.80
2022-09-15T05:43:14.489Z,14.80
2022-09-15T05:44:47.562Z,14.80
2022-09-15T05:46:21.461Z,14.80
2022-09-15T05:47:54.550Z,14.90
2022-09-15T05:49:29.254Z,14.90
2022-09-15T05:51:02.801Z,14.90
2022-09-15T05:52:36.101Z,14.90
2022-09-15T05:54:09.262Z,14.90
2022-09-15T05:55:43.851Z,14.90
2022-09-15T05:57:16.979Z,14.90
2022-09-15T05:58:50.702Z,15.00
2022-09-15T06:00:23.891Z,15.10
2022-09-15T06:01:57.035Z,15.20
2022-09-15T06:03:31.106Z,15.20
2022-09-15T06:05:04.771Z,15.30
2022-09-15T06:06:37.863Z,15.30
2022-09-15T06:08:11.887Z,15.40
2022-09-15T06:09:45.231Z,15.40
2022-09-15T06:11:21.449Z,15.40
2022-09-15T06:12:55.539Z,15.40
2022-09-15T06:14:28.687Z,15.50
2022-09-15T06:16:02.841Z,15.60
2022-09-15T06:17:36.003Z,15.70
2022-09-15T06:19:09.119Z,15.70
2022-09-15T06:20:42.420Z,15.70
2022-09-15T06:22:15.525Z,15.80
2022-09-15T06:23:53.461Z,15.80
2022-09-15T06:25:26.545Z,15.80
2022-09-15T06:27:01.185Z,15.90
2022-09-15T06:28:33.718Z,15.90
2022-09-15T06:30:08.044Z,16.00
2022-09-15T06:31:41.665Z,16.00
2022-09-15T06:33:14.766Z,16.00
2022-09-15T06:34:47.852Z,15.90
2022-09-15T06:36:21.834Z,15.70
2022-09-15T06:37:55.006Z,15.70
2022-09-15T06:39:28.954Z,15.60
2022-09-15T06:41:01.225Z,15.60
2022-09-15T06:42:35.689Z,15.60
2022-09-15T06:44:11.009Z,15.50
2022-09-15T06:45:44.093Z,15.60
2022-09-15T06:47:17.219Z,15.50
2022-09-15T06:48:51.248Z,15.50
2022-09-15T06:50:24.480Z,15.60
2022-09-15T06:51:57.550Z,15.70
2022-09-15T06:53:31.385Z,15.80
2022-09-15T06:55:05.354Z,16.00
2022-09-15T06:56:38.579Z,16.00
2022-09-15T06:58:13.044Z,16.10
2022-09-15T06:59:46.153Z,16.50
2022-09-15T07:01:25.163Z,16.70
2022-09-15T07:02:58.385Z,16.70
2022-09-15T07:04:31.518Z,16.90
2022-09-15T07:06:06.204Z,17.00
2022-09-15T07:07:39.228Z,17.20
2022-09-15T07:09:12.571Z,17.30
2022-09-15T07:10:46.757Z,17.10
2022-09-15T07:12:18.849Z,17.30
2022-09-15T07:13:53.686Z,17.60
2022-09-15T07:15:27.580Z,17.80
2022-09-15T07:17:00.688Z,17.90
2022-09-15T07:18:34.072Z,17.90
2022-09-15T07:20:07.731Z,18.20
2022-09-15T07:21:40.838Z,18.10
2022-09-15T07:23:14.016Z,18.30
2022-09-15T07:24:47.352Z,18.40
2022-09-15T07:26:22.437Z,18.20
2022-09-15T07:27:55.718Z,17.70
2022-09-15T07:29:30.116Z,17.60
2022-09-15T07:31:03.503Z,17.40
2022-09-15T07:32:36.557Z,16.60
2022-09-15T07:34:09.669Z,16.50
2022-09-15T07:35:42.372Z,16.40
2022-09-15T07:37:16.247Z,16.50
2022-09-15T07:38:50.612Z,16.50
2022-09-15T07:40:23.838Z,16.40
2022-09-15T07:41:56.939Z,16.30
2022-09-15T07:43:30.022Z,16.60
2022-09-15T07:45:04.688Z,16.30
2022-09-15T07:46:37.960Z,16.30
2022-09-15T07:48:11.019Z,16.40
2022-09-15T07:49:44.360Z,16.70
2022-09-15T07:51:17.606Z,17.10
2022-09-15T07:52:50.952Z,17.20
2022-09-15T07:54:24.015Z,16.80
2022-09-15T07:55:57.886Z,16.60
2022-09-15T07:57:30.917Z,16.80
2022-09-15T07:59:04.034Z,16.90
2022-09-15T08:00:39.175Z,16.60
2022-09-15T08:02:18.210Z,16.50
2022-09-15T08:03:53.718Z,16.50
2022-09-15T08:05:28.234Z,16.30
2022-09-15T08:07:01.652Z,16.40
2022-09-15T08:08:35.014Z,16.30
2022-09-15T08:10:09.987Z,16.50
2022-09-15T08:11:43.090Z,16.50
2022-09-15T08:13:16.165Z,16.30
2022-09-15T08:14:49.560Z,16.40
2022-09-15T08:16:25.265Z,16.50
2022-09-15T08:17:58.369Z,16.60
2022-09-15T08:19:32.785Z,16.70
2022-09-15T08:21:07.278Z,16.70
2022-09-15T08:22:41.196Z,16.80
2022-09-15T08:24:14.275Z,16.90
2022-09-15T08:25:47.657Z,17.20
2022-09-15T08:27:20.712Z,17.30
2022-09-15T08:28:54.277Z,17.90
2022-09-15T08:30:28.050Z,18.10
2022-09-15T08:32:02.836Z,18.30
2022-09-15T08:33:36.557Z,18.00
2022-09-15T08:35:10.316Z,18.10
2022-09-15T08:36:43.984Z,18.30
2022-09-15T08:38:17.025Z,17.40
2022-09-15T08:39:50.157Z,16.80
2022-09-15T08:41:26.778Z,16.70
2022-09-15T08:43:06.086Z,16.50
2022-09-15T08:44:47.570Z,16.50
2022-09-15T08:46:28.786Z,16.60
2022-09-15T08:48:07.486Z,16.50
2022-09-15T08:49:51.998Z,16.40
2022-09-15T08:51:33.675Z,16.30
2022-09-15T08:53:12.730Z,16.30
2022-09-15T08:54:45.866Z,16.40
2022-09-15T08:56:20.984Z,16.20
2022-09-15T08:57:54.999Z,16.20
2022-09-15T08:59:33.448Z,16.10
2022-09-15T09:01:18.589Z,16.10
2022-09-15T09:03:13.606Z,16.10
2022-09-15T09:05:12.175Z,16.20
2022-09-15T09:06:54.065Z,16.40
2022-09-15T09:08:51.609Z,16.60
2022-09-15T09:10:31.230Z,16.80
2022-09-15T09:12:20.527Z,17.00
2022-09-15T09:13:59.909Z,17.10
2022-09-15T09:15:46.007Z,17.20
2022-09-15T09:17:32.440Z,17.20
2022-09-15T09:19:22.083Z,17.00
2022-09-15T09:21:04.103Z,17.10
2022-09-15T09:22:40.480Z,17.40
2022-09-15T09:24:17.044Z,17.50
2022-09-15T09:25:50.792Z,17.50
2022-09-15T09:27:28.855Z,17.50
2022-09-15T09:29:05.210Z,17.20
2022-09-15T09:30:38.580Z,17.10
2022-09-15T09:32:21.654Z,17.20
2022-09-15T09:33:58.951Z,17.20
2022-09-15T09:35:38.800Z,17.20
2022-09-15T09:37:17.015Z,17.70
2022-09-15T09:38:51.209Z,17.90
2022-09-15T09:40:24.634Z,17.70
2022-09-15T09:41:58.054Z,17.70
2022-09-15T09:43:33.605Z,17.80
2022-09-15T09:45:08.357Z,18.00
2022-09-15T09:46:42.398Z,17.90
2022-09-15T09:48:20.741Z,17.90
2022-09-15T09:49:54.930Z,18.40
2022-09-15T09:51:32.730Z,18.10
2022-09-15T09:53:27.015Z,18.10
2022-09-15T09:55:01.843Z,18.10
2022-09-15T09:56:34.998Z,18.00
2022-09-15T09:58:14.534Z,18.10
2022-09-15T09:59:48.977Z,18.30
2022-09-15T10:01:24.792Z,18.40
2022-09-15T10:02:58.130Z,17.90
2022-09-15T10:04:31.246Z,17.50
2022-09-15T10:06:07.525Z,17.50
2022-09-15T10:07:44.369Z,17.60
2022-09-15T10:09:20.232Z,17.80
2022-09-15T10:10:55.855Z,18.00
2022-09-15T10:12:31.941Z,18.10
2022-09-15T10:14:05.054Z,18.10
2022-09-15T10:15:39.047Z,17.90
2022-09-15T10:17:15.468Z,17.80
2022-09-15T10:18:54.279Z,17.40
2022-09-15T10:20:32.779Z,17.40
2022-09-15T10:22:06.184Z,17.50
2022-09-15T10:23:39.368Z,17.40
2022-09-15T10:25:49.293Z,17.30
2022-09-15T10:27:31.962Z,17.50
2022-09-15T10:29:16.969Z,17.40
2022-09-15T10:31:02.279Z,17.10
2022-09-15T10:32:35.344Z,17.10
2022-09-15T10:34:30.469Z,17.20
2022-09-15T10:36:06.843Z,17.10
2022-09-15T10:37:57.038Z,17.00
2022-09-15T10:39:35.636Z,17.00
2022-09-15T10:41:23.856Z,17.10
2022-09-15T10:43:06.246Z,17.00
2022-09-15T10:44:49.502Z,16.90
2022-09-15T10:46:28.112Z,16.90
2022-09-15T10:48:29.458Z,17.00
2022-09-15T10:50:10.276Z,17.10
2022-09-15T10:51:57.679Z,17.00
2022-09-15T10:53:55.668Z,17.20
2022-09-15T10:55:52.919Z,17.10
2022-09-15T10:57:43.040Z,17.20
2022-09-15T10:59:34.932Z,17.40
2022-09-15T11:01:26.863Z,17.10
2022-09-15T11:03:28.186Z,17.00
2022-09-15T11:05:23.532Z,16.90
2022-09-15T11:07:09.236Z,17.00
2022-09-15T11:08:53.314Z,17.00
2022-09-15T11:10:33.905Z,17.30
2022-09-15T11:12:20.409Z,17.30
2022-09-15T11:14:09.727Z,17.70
2022-09-15T11:15:54.801Z,18.20
2022-09-15T11:17:38.231Z,18.50
2022-09-15T11:19:23.846Z,18.80
2022-09-15T11:21:21.486Z,18.30
2022-09-15T11:22:59.810Z,18.40
2022-09-15T11:24:43.032Z,18.60
2022-09-15T11:26:23.078Z,18.80
2022-09-15T11:28:02.481Z,18.70
2022-09-15T11:29:52.991Z,18.60
2022-09-15T11:31:29.024Z,18.60
2022-09-15T11:33:07.275Z,18.80
2022-09-15T11:34:47.861Z,18.80
2022-09-15T11:36:26.107Z,18.90
2022-09-15T11:38:04.947Z,19.00
2022-09-15T11:39:46.261Z,18.70
2022-09-15T11:41:23.580Z,18.20
2022-09-15T11:43:01.631Z,18.20
2022-09-15T11:44:38.285Z,18.40
2022-09-15T11:46:17.920Z,18.60
2022-09-15T11:47:54.525Z,18.80
2022-09-15T11:49:31.115Z,18.80
2022-09-15T11:51:07.753Z,18.70
2022-09-15T11:52:53.330Z,18.90
2022-09-15T11:54:33.925Z,18.60
2022-09-15T11:56:14.072Z,18.90
2022-09-15T11:57:51.697Z,18.90
2022-09-15T11:59:32.900Z,18.90
2022-09-15T12:01:15.123Z,18.90
2022-09-15T12:02:53.675Z,19.10
2022-09-15T12:04:31.523Z,19.50
2022-09-15T12:06:10.834Z,19.10
2022-09-15T12:07:49.583Z,18.70
2022-09-15T12:09:23.340Z,18.80
2022-09-15T12:11:00.042Z,18.90
2022-09-15T12:12:35.843Z,19.00
2022-09-15T12:14:15.076Z,19.10
2022-09-15T12:15:49.523Z,19.10
2022-09-15T12:17:35.162Z,19.30
2022-09-15T12:19:15.908Z,19.80
2022-09-15T12:20:57.374Z,20.00
2022-09-15T12:22:36.557Z,19.60
2022-09-15T12:24:15.654Z,19.40
2022-09-15T12:26:06.075Z,19.70
2022-09-15T12:27:39.192Z,20.00
2022-09-15T12:29:31.363Z,19.80
2022-09-15T12:31:37.240Z,19.90
2022-09-15T12:33:54.508Z,19.60
2022-09-15T12:35:33.941Z,19.80
2022-09-15T12:37:13.747Z,19.70
2022-09-15T12:38:49.665Z,19.70
2022-09-15T12:40:34.111Z,19.20
2022-09-15T12:42:18.885Z,18.90
2022-09-15T12:43:53.333Z,19.40
2022-09-15T12:45:28.685Z,19.70
2022-09-15T12:47:04.138Z,20.00
2022-09-15T12:48:37.864Z,19.50
2022-09-15T12:50:26.444Z,19.10
2022-09-15T12:52:01.968Z,18.90
2022-09-15T12:53:39.090Z,19.10
2022-09-15T12:55:20.417Z,19.50
2022-09-15T12:56:55.736Z,19.80
2022-09-15T12:58:36.436Z,19.90
2022-09-15T13:00:37.992Z,20.10
2022-09-15T13:02:44.731Z,20.60
2022-09-15T13:04:45.886Z,20.60
2022-09-15T13:06:22.794Z,20.60
2022-09-15T13:07:57.051Z,20.50
2022-09-15T13:09:30.244Z,20.60
2022-09-15T13:11:07.965Z,20.30
2022-09-15T13:12:50.727Z,19.50
2022-09-15T13:14:30.097Z,19.30
2022-09-15T13:16:07.468Z,19.20
2022-09-15T13:17:44.246Z,19.00
2022-09-15T13:19:21.809Z,19.00
2022-09-15T13:21:00.774Z,18.70
2022-09-15T13:22:40.935Z,18.40
2022-09-15T13:24:20.129Z,18.50
2022-09-15T13:25:57.558Z,18.40
2022-09-15T13:27:36.737Z,18.30
2022-09-15T13:29:14.542Z,18.10
2022-09-15T13:31:10.949Z,17.90
2022-09-15T13:32:50.531Z,17.70
2022-09-15T13:35:10.106Z,17.70
2022-09-15T13:39:18.862Z,17.40
2022-09-15T13:41:32.880Z,17.40
2022-09-15T13:43:40.985Z,17.60
2022-09-15T13:45:34.034Z,17.70
2022-09-15T13:47:33.585Z,17.60
2022-09-15T13:49:26.190Z,17.50
2022-09-15T13:51:01.824Z,17.40
2022-09-15T13:52:48.492Z,17.40
2022-09-15T13:54:23.151Z,17.40
2022-09-15T13:55:57.259Z,17.20
2022-09-15T13:59:28.276Z,17.10
2022-09-15T14:01:04.126Z,17.10
2022-09-15T14:02:37.402Z,17.10
2022-09-15T14:04:16.615Z,16.90
2022-09-15T14:05:49.760Z,16.90
2022-09-15T14:07:25.573Z,16.80
2022-09-15T14:09:03.922Z,16.70
2022-09-15T14:10:49.356Z,16.50
2022-09-15T14:12:22.461Z,16.20
2022-09-15T14:13:57.702Z,16.00
2022-09-15T14:15:31.153Z,15.90
2022-09-15T14:17:04.843Z,15.60
2022-09-15T14:18:44.287Z,15.50
2022-09-15T14:20:27.195Z,15.40
2022-09-15T14:22:01.113Z,15.50
2022-09-15T14:23:33.436Z,15.40
2022-09-15T14:25:08.654Z,15.50
2022-09-15T14:26:43.334Z,15.30
2022-09-15T14:28:20.142Z,15.30
2022-09-15T14:29:55.395Z,15.30
2022-09-15T14:31:34.571Z,15.10
2022-09-15T14:33:07.678Z,15.10
2022-09-15T14:34:42.023Z,15.10
2022-09-15T14:36:22.435Z,15.20
2022-09-15T14:37:57.594Z,15.20
2022-09-15T14:39:30.764Z,15.30
2022-09-15T14:41:04.048Z,15.20
2022-09-15T14:42:42.117Z,15.30
2022-09-15T14:46:19.319Z,15.30
2022-09-15T14:48:01.123Z,15.30
2022-09-15T14:49:34.170Z,15.30
2022-09-15T14:51:14.408Z,15.30
2022-09-15T14:52:50.462Z,15.30
2022-09-15T14:54:30.196Z,15.40
2022-09-15T14:56:08.540Z,15.50
2022-09-15T14:57:48.836Z,15.40
2022-09-15T14:59:27.337Z,15.60
2022-09-15T15:01:04.848Z,15.70
2022-09-15T15:02:52.050Z,15.70
2022-09-15T15:04:30.312Z,15.70
2022-09-15T15:06:28.432Z,15.80
2022-09-15T15:08:04.681Z,15.80
2022-09-15T15:09:43.652Z,15.90
2022-09-15T15:11:19.098Z,16.00
2022-09-15T15:12:56.231Z,16.00
2022-09-15T15:14:30.076Z,16.00
2022-09-15T15:16:07.771Z,16.00
2022-09-15T15:17:43.784Z,16.00
2022-09-15T15:19:32.664Z,16.10
2022-09-15T15:21:06.727Z,16.10
2022-09-15T15:22:41.039Z,16.10
2022-09-15T15:24:20.324Z,16.10
2022-09-15T15:25:54.258Z,16.20
2022-09-15T15:27:43.277Z,16.30
2022-09-15T15:29:42.547Z,16.40
2022-09-15T15:31:18.711Z,16.40
2022-09-15T15:32:50.971Z,16.40
2022-09-15T15:34:25.766Z,16.30
2022-09-15T15:36:08.129Z,16.40
2022-09-15T15:37:41.343Z,16.40
2022-09-15T15:39:25.606Z,16.40
2022-09-15T15:41:03.238Z,16.30
2022-09-15T15:42:36.324Z,16.30
2022-09-15T15:44:27.829Z,16.20
2022-09-15T15:46:04.087Z,16.10
2022-09-15T15:47:38.014Z,16.10
2022-09-15T15:49:13.306Z,16.10
2022-09-15T15:50:46.741Z,16.10
2022-09-15T15:52:19.786Z,16.00
2022-09-15T15:53:52.841Z,16.00
2022-09-15T15:55:29.581Z,16.00
2022-09-15T15:57:22.339Z,15.90
2022-09-15T15:58:55.370Z,16.00
2022-09-15T16:00:34.041Z,15.90
2022-09-15T16:02:12.027Z,15.90
2022-09-15T16:03:45.148Z,16.00
2022-09-15T16:05:18.234Z,15.90
2022-09-15T16:06:52.485Z,15.90
2022-09-15T16:08:30.161Z,15.90
2022-09-15T16:10:02.459Z,15.90
2022-09-15T16:11:35.826Z,15.90
2022-09-15T16:13:10.611Z,15.90
2022-09-15T16:14:43.951Z,15.90
2022-09-15T16:16:19.558Z,15.90
2022-09-15T16:17:54.100Z,15.80
2022-09-15T16:19:27.295Z,15.90
2022-09-15T16:21:00.371Z,15.80
2022-09-15T16:22:32.508Z,15.80
2022-09-15T16:24:06.300Z,15.90
2022-09-15T16:25:42.987Z,15.90
2022-09-15T16:27:18.244Z,16.00
2022-09-15T16:28:52.179Z,16.10
2022-09-15T16:30:24.453Z,16.10
2022-09-15T16:31:59.498Z,16.20
2022-09-15T16:33:38.009Z,16.20
2022-09-15T16:35:31.176Z,16.20
2022-09-15T16:37:04.296Z,16.20
2022-09-15T16:38:37.731Z,16.30
2022-09-15T16:40:11.266Z,16.30
2022-09-15T16:41:44.368Z,16.30
2022-09-15T16:43:20.888Z,16.30
2022-09-15T16:44:52.932Z,16.20
2022-09-15T16:46:26.168Z,16.20
2022-09-15T16:47:59.307Z,16.20
2022-09-15T16:49:37.379Z,16.10
2022-09-15T16:51:30.954Z,16.10
2022-09-15T16:53:04.852Z,16.00
2022-09-15T16:54:37.937Z,16.00
2022-09-15T16:56:13.132Z,16.00
2022-09-15T16:57:46.161Z,15.90
2022-09-15T16:59:19.224Z,15.90
2022-09-15T17:00:53.662Z,15.80
2022-09-15T17:02:25.990Z,15.80
2022-09-15T17:03:59.266Z,15.80
2022-09-15T17:05:37.284Z,15.70
2022-09-15T17:07:09.340Z,15.70
2022-09-15T17:08:42.980Z,15.70
2022-09-15T17:10:16.824Z,15.60
2022-09-15T17:11:50.223Z,15.60
2022-09-15T17:13:27.864Z,15.60
2022-09-15T17:15:03.305Z,15.50
2022-09-15T17:16:36.353Z,15.50
2022-09-15T17:18:13.357Z,15.50
2022-09-15T17:19:46.393Z,15.40
2022-09-15T17:21:20.835Z,15.40
2022-09-15T17:22:55.129Z,15.40
2022-09-15T17:24:28.599Z,15.40
2022-09-15T17:26:04.154Z,15.20
2022-09-15T17:27:37.401Z,15.20
2022-09-15T17:29:10.454Z,15.20
2022-09-15T17:30:43.685Z,15.20
2022-09-15T17:32:16.717Z,15.10
2022-09-15T17:33:51.288Z,15.20
2022-09-15T17:35:26.730Z,15.10
2022-09-15T17:37:01.333Z,15.10
2022-09-15T17:38:34.487Z,15.10
2022-09-15T17:40:08.660Z,15.10
2022-09-15T17:41:41.769Z,15.00
2022-09-15T17:43:17.517Z,15.00
2022-09-15T17:44:50.637Z,14.90
2022-09-15T17:46:23.748Z,15.00
2022-09-15T17:47:56.305Z,15.00
2022-09-15T17:49:29.565Z,14.90
2022-09-15T17:51:02.597Z,14.90
2022-09-15T17:52:36.056Z,14.90
2022-09-15T17:54:11.259Z,14.90
2022-09-15T17:55:43.823Z,14.90
2022-09-15T17:57:16.859Z,14.90
2022-09-15T17:58:49.921Z,14.90
2022-09-15T18:00:24.593Z,14.90
2022-09-15T18:01:57.796Z,14.80
2022-09-15T18:03:34.644Z,14.90
2022-09-15T18:05:07.824Z,14.90
2022-09-15T18:06:45.280Z,15.00
2022-09-15T18:08:20.026Z,15.10
2022-09-15T18:09:53.073Z,15.10
2022-09-15T18:11:28.094Z,15.20
2022-09-15T18:13:00.494Z,15.10
2022-09-15T18:14:33.623Z,15.10
2022-09-15T18:16:08.632Z,15.10
2022-09-15T18:17:41.724Z,15.10
2022-09-15T18:19:14.783Z,15.10
2022-09-15T18:20:48.159Z,15.10
2022-09-15T18:22:23.970Z,15.00
2022-09-15T18:23:58.513Z,15.00
2022-09-15T18:25:34.501Z,14.90
2022-09-15T18:27:08.192Z,14.90
2022-09-15T18:28:41.566Z,15.00
2022-09-15T18:30:14.782Z,15.00
2022-09-15T18:31:48.033Z,15.00
2022-09-15T18:33:23.314Z,14.90
2022-09-15T18:34:56.369Z,14.80
2022-09-15T18:36:29.983Z,14.80
2022-09-15T18:38:03.074Z,14.70
2022-09-15T18:39:38.115Z,14.60
2022-09-15T18:41:13.022Z,14.60
2022-09-15T18:42:46.691Z,14.60
2022-09-15T18:44:19.736Z,14.60
2022-09-15T18:45:53.255Z,14.50
2022-09-15T18:47:26.762Z,14.50
2022-09-15T18:48:59.853Z,14.40
2022-09-15T18:50:33.691Z,14.40
2022-09-15T18:52:06.856Z,14.50
2022-09-15T18:53:40.101Z,14.50
2022-09-15T18:55:17.618Z,14.50
2022-09-15T18:56:51.394Z,14.50
2022-09-15T18:58:24.436Z,14.50
2022-09-15T18:59:57.596Z,14.50
2022-09-15T19:01:30.791Z,14.60
2022-09-15T19:03:06.786Z,14.60
2022-09-15T19:04:40.731Z,14.60
2022-09-15T19:06:14.021Z,14.60
2022-09-15T19:07:47.647Z,14.50
2022-09-15T19:09:20.742Z,14.50
2022-09-15T19:10:59.400Z,14.40
2022-09-15T19:12:33.558Z,14.40
2022-09-15T19:14:07.748Z,14.40
2022-09-15T19:15:41.031Z,14.30
2022-09-15T19:17:14.438Z,14.30
2022-09-15T19:18:50.198Z,14.30
2022-09-15T19:20:22.297Z,14.30
2022-09-15T19:21:55.367Z,14.20
2022-09-15T19:23:28.398Z,14.30
2022-09-15T19:25:01.519Z,14.20
2022-09-15T19:26:37.381Z,14.20
2022-09-15T19:28:11.030Z,14.10
2022-09-15T19:29:44.065Z,14.10
2022-09-15T19:31:17.330Z,14.10
2022-09-15T19:32:50.571Z,14.10
2022-09-15T19:34:23.658Z,14.10
2022-09-15T19:36:10.805Z,14.10
2022-09-15T19:37:50.046Z,14.10
2022-09-15T19:39:23.728Z,14.10
2022-09-15T19:41:04.617Z,14.10
2022-09-15T19:42:40.063Z,14.10
2022-09-15T19:44:13.131Z,14.20
2022-09-15T19:45:46.298Z,14.20
2022-09-15T19:47:19.411Z,14.10
2022-09-15T19:48:52.707Z,14.30
2022-09-15T19:50:25.870Z,14.20
2022-09-15T19:51:58.944Z,14.10
2022-09-15T19:53:32.032Z,14.20
2022-09-15T19:55:06.690Z,14.10
2022-09-15T19:56:39.844Z,14.10
2022-09-15T19:58:14.240Z,14.10
2022-09-15T19:59:47.543Z,14.10
2022-09-15T20:01:20.779Z,14.20
2022-09-15T20:02:54.064Z,14.30
2022-09-15T20:04:27.146Z,14.30
2022-09-15T20:06:00.457Z,14.40
2022-09-15T20:07:33.590Z,14.40
2022-09-15T20:09:08.146Z,14.50
2022-09-15T20:10:41.238Z,14.40
2022-09-15T20:12:14.413Z,14.50
2022-09-15T20:13:48.989Z,14.50
2022-09-15T20:15:22.129Z,14.60
2022-09-15T20:16:57.480Z,14.60
2022-09-15T20:18:36.538Z,14.60
2022-09-15T20:20:11.349Z,14.60
2022-09-15T20:21:50.373Z,14.60
2022-09-15T20:23:23.843Z,14.60
2022-09-15T20:24:57.380Z,14.70
2022-09-15T20:26:31.524Z,14.70
2022-09-15T20:28:04.593Z,14.70
2022-09-15T20:29:39.086Z,14.60
2022-09-15T20:31:13.734Z,14.60
2022-09-15T20:32:46.901Z,14.70
2022-09-15T20:34:20.059Z,14.60
2022-09-15T20:35:53.170Z,14.60
2022-09-15T20:37:26.204Z,14.60
2022-09-15T20:38:59.708Z,14.50
2022-09-15T20:40:32.783Z,14.40
2022-09-15T20:42:06.079Z,14.50
2022-09-15T20:43:40.156Z,14.50
2022-09-15T20:45:15.349Z,14.50
2022-09-15T20:46:48.390Z,14.50
2022-09-15T20:48:20.483Z,14.50
2022-09-15T20:49:53.547Z,14.50
2022-09-15T20:51:30.484Z,14.50
2022-09-15T20:53:03.518Z,14.50
2022-09-15T20:54:36.580Z,14.50